Terminal Aerodrome Forecast
Issued by NWS Melbourne, FL

Home | Current Version | Previous Version | Text Only | Print | Product List | Glossary On
Versions: 1 2 3 4 5 6 7 8 9 10 11 12 13 14 15 16
821
FTUS42 KMLB 161734
TAFMLB
TAF
KMLB 161734Z 1618/1718 10012KT P6SM SKC
     FM170000 10006KT P6SM FEW040 SCT250
     FM170600 12005KT P6SM SCT040 SCT250
     FM171500 13010KT P6SM SCT035=

USA.gov is the U.S. government's official web portal to all federal, state and local government web resources and services.